Time;durP1;ratioP1;P1;durP2;ratioP2;P2;SDS_P1;SDS_P2;PMS_P1;PMS_P2;Temp;Humidity;BMP_temperature;BMP_pressure;BME280_temperature;BME280_humidity;BME280_pressure;Samples;Min_cycle;Max_cycle;Signal;HPM_P1;HPM_P2
2022/05/04 00:01:43;;;;;;;7.78;4.90;;;13.90;99.90;;;;;;5031452;28;20192;-74
2022/05/04 00:04:08;;;;;;;8.60;5.00;;;13.90;99.90;;;;;;5031369;28;20204;-74
2022/05/04 00:06:34;;;;;;;4.85;4.25;;;13.90;99.90;;;;;;5025062;28;20256;-74
2022/05/04 00:08:59;;;;;;;7.40;4.90;;;14.00;99.90;;;;;;5011452;28;20196;-74
2022/05/04 00:11:25;;;;;;;8.60;4.65;;;13.90;99.90;;;;;;5011955;28;20673;-75
2022/05/04 00:13:50;;;;;;;6.05;4.53;;;13.90;99.90;;;;;;5012876;28;20200;-75
2022/05/04 00:16:16;;;;;;;5.53;4.43;;;13.90;99.90;;;;;;5012793;28;20209;-75
2022/05/04 00:18:41;;;;;;;7.45;5.10;;;14.00;99.90;;;;;;5011945;28;20215;-74
2022/05/04 00:21:07;;;;;;;6.10;4.65;;;13.90;99.90;;;;;;5012856;28;20181;-74
2022/05/04 00:23:33;;;;;;;5.60;4.63;;;13.90;99.90;;;;;;5013001;28;20532;-74
2022/05/04 00:25:59;;;;;;;6.35;4.45;;;13.90;99.90;;;;;;5020771;28;20204;-74
2022/05/04 00:28:25;;;;;;;6.40;4.80;;;13.80;99.90;;;;;;5010339;28;20263;-74
2022/05/04 00:30:50;;;;;;;5.10;4.03;;;13.90;99.90;;;;;;5011699;28;20212;-74
2022/05/04 00:33:16;;;;;;;7.07;5.15;;;13.80;99.90;;;;;;5028160;28;20281;-74
2022/05/04 00:35:41;;;;;;;7.22;4.90;;;13.90;99.90;;;;;;5032295;28;20187;-74
2022/05/04 00:38:07;;;;;;;6.25;4.75;;;13.90;99.90;;;;;;5010507;28;20213;-74
2022/05/04 00:40:33;;;;;;;8.32;5.07;;;13.90;99.90;;;;;;5012261;28;20239;-75
2022/05/04 00:42:58;;;;;;;6.93;4.97;;;13.90;99.90;;;;;;5012392;28;20220;-74
2022/05/04 00:45:24;;;;;;;6.13;4.93;;;13.90;99.90;;;;;;5012592;28;20204;-75
2022/05/04 00:47:50;;;;;;;6.90;5.03;;;13.80;99.90;;;;;;5046556;23;20430;-74
2022/05/04 00:50:15;;;;;;;8.48;5.25;;;13.80;99.90;;;;;;5029975;28;20211;-74
2022/05/04 00:52:45;;;;;;;9.73;5.70;;;13.80;99.90;;;;;;5030489;28;20222;-74
2022/05/04 00:55:13;;;;;;;6.83;4.67;;;13.70;99.90;;;;;;5030501;28;20200;-74
2022/05/04 01:00:32;;;;;;;9.03;5.37;;;13.50;99.90;;;;;;5015753;28;20557;-73
2022/05/04 01:02:58;;;;;;;8.17;5.13;;;13.50;99.90;;;;;;5030246;28;20214;-74
2022/05/04 01:05:23;;;;;;;6.77;5.23;;;13.50;99.90;;;;;;5031130;28;20637;-74
2022/05/04 01:07:51;;;;;;;7.07;5.40;;;13.60;99.90;;;;;;5045457;28;20232;-74
2022/05/04 01:10:16;;;;;;;6.27;4.70;;;13.50;99.90;;;;;;5049554;28;20208;-75
2022/05/04 01:12:50;;;;;;;6.33;5.63;;;13.50;99.90;;;;;;5049978;28;20624;-74
2022/05/04 01:15:17;;;;;;;7.50;5.22;;;13.40;99.90;;;;;;5051433;28;20532;-75
2022/05/04 01:17:42;;;;;;;6.57;5.57;;;13.30;99.90;;;;;;5050103;28;20261;-76
2022/05/04 01:20:08;;;;;;;7.50;5.20;;;13.30;99.90;;;;;;5050562;28;20200;-76
2022/05/04 01:22:38;;;;;;;8.20;5.90;;;13.30;99.90;;;;;;5051135;28;20207;-76
2022/05/04 01:25:04;;;;;;;8.37;5.73;;;13.30;99.90;;;;;;5049926;28;20217;-76
2022/05/04 01:27:29;;;;;;;8.73;5.30;;;13.40;99.90;;;;;;5051020;28;20769;-76
2022/05/04 01:29:55;;;;;;;8.53;5.60;;;13.40;99.90;;;;;;5051129;28;20168;-76
2022/05/04 01:32:20;;;;;;;7.07;5.40;;;13.40;99.90;;;;;;5053630;28;20245;-75
2022/05/04 01:34:46;;;;;;;6.67;5.57;;;13.30;99.90;;;;;;5052091;28;20211;-76
2022/05/04 01:37:12;;;;;;;7.47;4.78;;;13.30;99.90;;;;;;5043607;28;20211;-74
2022/05/04 01:39:37;;;;;;;6.77;5.53;;;13.30;99.90;;;;;;5031642;28;20227;-74
2022/05/04 01:42:03;;;;;;;7.43;6.03;;;13.30;99.90;;;;;;5031412;28;20639;-75
2022/05/04 01:44:33;;;;;;;10.33;5.53;;;13.20;99.90;;;;;;5030068;28;20260;-76
2022/05/04 01:46:59;;;;;;;8.97;5.53;;;13.20;99.90;;;;;;5029739;28;20219;-75
2022/05/04 01:49:25;;;;;;;6.20;5.57;;;13.20;99.90;;;;;;5029932;28;20212;-76
2022/05/04 01:51:51;;;;;;;7.00;5.47;;;13.20;99.90;;;;;;5029932;28;20200;-76
2022/05/04 01:54:16;;;;;;;8.03;5.87;;;13.20;99.90;;;;;;5031086;28;20269;-76
2022/05/04 01:56:42;;;;;;;10.45;5.75;;;13.10;99.90;;;;;;5038428;28;20204;-77
2022/05/04 01:59:07;;;;;;;7.93;6.13;;;13.10;99.90;;;;;;5028662;28;20688;-76
2022/05/04 02:01:34;;;;;;;8.10;5.97;;;13.00;99.90;;;;;;5029432;28;20262;-76
2022/05/04 02:04:00;;;;;;;7.70;6.07;;;13.10;99.90;;;;;;5029682;28;20218;-76
2022/05/04 02:06:26;;;;;;;8.70;5.80;;;13.00;99.90;;;;;;5042459;28;20204;-76
2022/05/04 02:08:52;;;;;;;10.33;6.30;;;12.90;99.90;;;;;;5046796;28;20629;-76
2022/05/04 02:11:17;;;;;;;7.27;6.03;;;12.80;99.90;;;;;;5037179;28;20280;-76
2022/05/04 02:13:43;;;;;;;9.07;7.10;;;12.80;99.90;;;;;;5045984;28;20575;-76
2022/05/04 02:16:09;;;;;;;10.93;6.70;;;12.80;99.90;;;;;;5029489;28;20708;-75
2022/05/04 02:18:34;;;;;;;10.50;7.23;;;12.70;99.90;;;;;;5029884;28;20226;-77
2022/05/04 02:21:01;;;;;;;8.70;6.13;;;12.70;99.90;;;;;;5034874;28;20278;-76
2022/05/04 02:23:26;;;;;;;11.57;7.03;;;12.70;99.90;;;;;;5049784;28;20175;-76
2022/05/04 02:25:52;;;;;;;10.27;6.80;;;12.50;99.90;;;;;;5036847;28;20266;-76
2022/05/04 02:28:18;;;;;;;9.83;7.00;;;12.50;99.90;;;;;;5028649;28;20208;-76
2022/05/04 02:30:44;;;;;;;10.10;6.90;;;12.40;99.90;;;;;;5033291;28;20278;-76
2022/05/04 02:33:10;;;;;;;10.73;7.07;;;12.40;99.90;;;;;;5053180;28;20179;-76
2022/05/04 02:38:19;;;;;;;10.40;7.30;;;12.40;99.90;;;;;;5049936;28;20221;-76
2022/05/04 02:40:45;;;;;;;12.40;6.83;;;12.40;99.90;;;;;;5053015;28;20203;-76
2022/05/04 02:43:10;;;;;;;10.57;7.00;;;12.30;99.90;;;;;;5053393;28;20223;-77
2022/05/04 02:45:36;;;;;;;10.30;6.33;;;12.20;99.90;;;;;;5044898;28;20232;-78
2022/05/04 02:48:02;;;;;;;11.03;8.00;;;12.20;99.90;;;;;;5029126;28;20216;-77
2022/05/04 02:50:27;;;;;;;9.00;6.73;;;12.20;99.90;;;;;;5051262;28;20168;-76
2022/05/04 02:52:53;;;;;;;9.37;7.40;;;12.20;99.90;;;;;;5034647;28;20548;-76
2022/05/04 02:55:18;;;;;;;9.47;7.23;;;12.20;99.90;;;;;;5032958;28;20199;-76
2022/05/04 02:57:44;;;;;;;11.17;6.70;;;12.30;99.90;;;;;;5033514;28;20358;-75
2022/05/04 03:00:10;;;;;;;9.13;6.77;;;12.30;99.90;;;;;;5032518;28;20168;-76
2022/05/04 03:02:36;;;;;;;10.13;7.27;;;12.20;99.90;;;;;;5035013;28;20656;-76
2022/05/04 03:05:07;;;;;;;9.90;7.43;;;12.10;99.90;;;;;;5033026;28;20223;-77
2022/05/04 03:07:33;;;;;;;11.43;7.07;;;12.10;99.90;;;;;;5032145;28;20204;-75
2022/05/04 03:09:59;;;;;;;10.07;6.63;;;12.10;99.90;;;;;;5032993;28;20200;-75
2022/05/04 03:12:25;;;;;;;11.33;7.67;;;12.10;99.90;;;;;;5033415;28;20315;-76
2022/05/04 03:14:51;;;;;;;11.00;8.00;;;12.10;99.90;;;;;;5032865;28;20172;-76
2022/05/04 03:17:17;;;;;;;11.63;6.97;;;12.10;99.90;;;;;;5033431;28;20200;-76
2022/05/04 03:19:43;;;;;;;10.27;6.90;;;12.10;99.90;;;;;;5034480;28;20735;-76
2022/05/04 03:22:09;;;;;;;8.13;6.57;;;12.00;99.90;;;;;;5032117;28;20232;-78
2022/05/04 03:24:34;;;;;;;7.93;6.43;;;12.00;99.90;;;;;;5033112;28;20216;-76
2022/05/04 03:27:00;;;;;;;10.57;7.57;;;12.00;99.90;;;;;;5033359;28;20196;-76
2022/05/04 03:29:26;;;;;;;11.33;6.67;;;12.00;99.90;;;;;;5033273;28;20161;-76
2022/05/04 03:31:51;;;;;;;10.23;7.23;;;11.90;99.90;;;;;;5032119;28;20208;-76
2022/05/04 03:34:18;;;;;;;11.90;7.83;;;12.00;99.90;;;;;;5033407;28;20200;-77
2022/05/04 03:36:43;;;;;;;10.93;7.40;;;12.00;99.90;;;;;;5032980;28;20202;-77
2022/05/04 03:39:09;;;;;;;11.47;7.43;;;12.00;99.90;;;;;;5031319;28;20197;-76
2022/05/04 03:41:35;;;;;;;9.73;6.97;;;12.00;99.90;;;;;;5031650;28;20264;-76
2022/05/04 03:44:01;;;;;;;9.53;7.53;;;12.00;99.90;;;;;;5031743;28;20616;-76
2022/05/04 03:46:28;;;;;;;11.13;7.37;;;12.10;99.90;;;;;;5031426;28;20200;-76
2022/05/04 03:48:56;;;;;;;11.07;7.73;;;12.10;99.90;;;;;;5033843;28;20196;-76
2022/05/04 03:51:22;;;;;;;10.20;7.43;;;12.10;99.90;;;;;;5031802;28;20258;-74
2022/05/04 03:53:49;;;;;;;8.43;6.70;;;12.10;99.90;;;;;;5032510;28;20168;-76
2022/05/04 03:56:15;;;;;;;8.73;7.10;;;12.20;99.90;;;;;;5031811;28;20203;-77
2022/05/04 03:58:41;;;;;;;9.57;7.37;;;12.30;99.90;;;;;;5032351;28;20220;-76
2022/05/04 04:01:07;;;;;;;8.80;7.17;;;12.50;99.90;;;;;;5032026;28;20204;-76
2022/05/04 04:03:33;;;;;;;10.33;7.50;;;13.40;99.90;;;;;;5033071;28;20212;-76
2022/05/04 04:05:59;;;;;;;8.47;7.33;;;14.10;99.90;;;;;;5031940;28;20188;-76
2022/05/04 04:08:25;;;;;;;11.50;7.72;;;14.40;99.90;;;;;;5032470;28;20188;-76
2022/05/04 04:10:51;;;;;;;11.38;7.38;;;14.60;99.90;;;;;;5031055;28;20216;-77
2022/05/04 04:13:17;;;;;;;9.07;6.80;;;14.40;99.90;;;;;;5031134;28;20227;-77
2022/05/04 04:15:42;;;;;;;10.48;7.10;;;14.10;99.90;;;;;;5032570;28;20215;-76
2022/05/04 04:18:08;;;;;;;10.18;6.63;;;13.90;99.90;;;;;;5031099;28;20214;-76
2022/05/04 04:23:19;;;;;;;11.38;7.28;;;13.60;99.90;;;;;;5032234;28;20208;-76
2022/05/04 04:25:44;;;;;;;10.77;7.17;;;13.50;99.90;;;;;;5032154;28;20612;-76
2022/05/04 04:28:10;;;;;;;11.43;7.60;;;13.40;99.90;;;;;;5030338;28;20632;-76
2022/05/04 04:30:39;;;;;;;10.20;7.70;;;13.50;99.90;;;;;;5030521;28;20257;-76
2022/05/04 04:33:06;;;;;;;13.18;7.88;;;13.60;99.90;;;;;;5030819;28;20187;-78
2022/05/04 04:35:32;;;;;;;9.30;7.45;;;14.40;99.90;;;;;;5031373;28;20176;-76
2022/05/04 04:37:58;;;;;;;13.15;7.47;;;14.30;99.90;;;;;;5031688;28;21046;-76
2022/05/04 04:40:24;;;;;;;11.75;8.07;;;15.00;99.90;;;;;;5032113;28;20283;-76
2022/05/04 04:42:49;;;;;;;10.98;7.25;;;15.60;99.90;;;;;;5031974;28;20280;-77
2022/05/04 04:45:15;;;;;;;11.07;7.78;;;15.50;99.90;;;;;;5032043;28;20295;-77
2022/05/04 04:47:40;;;;;;;17.63;8.10;;;15.20;99.90;;;;;;5031598;28;20220;-76
2022/05/04 04:50:07;;;;;;;10.23;8.20;;;15.40;99.90;;;;;;5029218;28;20196;-77
2022/05/04 04:52:32;;;;;;;10.65;8.20;;;14.90;99.90;;;;;;5031699;28;20204;-77
2022/05/04 04:54:57;;;;;;;10.73;7.97;;;14.90;99.90;;;;;;5031372;28;20199;-76
2022/05/04 04:57:23;;;;;;;11.48;7.97;;;14.80;99.90;;;;;;5031768;28;20204;-77
2022/05/04 04:59:49;;;;;;;12.90;8.15;;;14.40;99.90;;;;;;5031587;28;20238;-77
2022/05/04 05:02:15;;;;;;;14.10;8.57;;;14.20;99.90;;;;;;5032128;28;20751;-77
2022/05/04 05:04:41;;;;;;;16.00;8.43;;;14.20;99.90;;;;;;5032431;28;20287;-76
2022/05/04 05:07:06;;;;;;;13.98;8.32;;;14.30;99.90;;;;;;5031708;28;20199;-76
2022/05/04 05:09:32;;;;;;;16.00;8.98;;;14.30;99.90;;;;;;5030690;28;20200;-77
2022/05/04 05:11:57;;;;;;;13.25;8.48;;;14.30;99.90;;;;;;5031725;28;20279;-77
2022/05/04 05:17:07;;;;;;;13.27;8.23;;;14.30;99.90;;;;;;5031522;28;20573;-76
2022/05/04 05:19:32;;;;;;;14.95;9.40;;;14.30;99.90;;;;;;5030637;28;20216;-76
2022/05/04 05:21:58;;;;;;;15.70;7.85;;;14.30;99.90;;;;;;5031678;28;20210;-77
2022/05/04 05:24:23;;;;;;;13.00;7.95;;;14.30;99.90;;;;;;5030591;28;20204;-77
2022/05/04 05:26:49;;;;;;;10.55;8.20;;;14.40;99.90;;;;;;5031282;28;20559;-76
2022/05/04 05:29:14;;;;;;;12.57;8.00;;;14.50;99.90;;;;;;5030911;28;20204;-75
2022/05/04 05:31:39;;;;;;;14.63;8.32;;;14.40;99.90;;;;;;5040030;28;20201;-76
2022/05/04 05:34:05;;;;;;;19.23;8.55;;;14.40;99.90;;;;;;5040986;28;20286;-74
2022/05/04 05:36:30;;;;;;;14.02;9.27;;;14.40;99.90;;;;;;5049555;28;20227;-76
2022/05/04 05:38:56;;;;;;;15.20;8.88;;;14.50;99.90;;;;;;5031101;28;20192;-76
2022/05/04 05:41:23;;;;;;;12.73;8.30;;;14.70;99.90;;;;;;5030357;28;20214;-76
2022/05/04 05:43:49;;;;;;;13.07;8.68;;;14.80;99.90;;;;;;5029708;28;20282;-76
2022/05/04 05:46:14;;;;;;;13.65;9.35;;;15.00;99.90;;;;;;5031768;28;20217;-77
2022/05/04 05:48:40;;;;;;;31.65;9.18;;;15.20;99.90;;;;;;5052554;28;20286;-77
2022/05/04 05:51:06;;;;;;;19.70;9.88;;;15.30;99.90;;;;;;5052139;28;20190;-77
2022/05/04 05:53:32;;;;;;;13.90;9.65;;;15.20;99.90;;;;;;5063524;28;20195;-76
2022/05/04 05:55:57;;;;;;;15.65;9.00;;;15.30;99.90;;;;;;5053974;28;20191;-77
2022/05/04 05:58:23;;;;;;;16.63;9.77;;;15.10;99.90;;;;;;5054224;28;20221;-76
2022/05/04 06:00:49;;;;;;;19.52;9.68;;;15.10;99.90;;;;;;5051424;28;20203;-77
2022/05/04 06:03:15;;;;;;;14.70;8.93;;;15.20;99.90;;;;;;5035464;28;20207;-75
2022/05/04 06:05:41;;;;;;;15.27;8.85;;;15.50;99.90;;;;;;5060303;28;20191;-76
2022/05/04 06:08:09;;;;;;;13.57;8.85;;;15.70;99.90;;;;;;5056784;28;20573;-75
2022/05/04 06:10:35;;;;;;;13.43;8.25;;;15.90;99.90;;;;;;5063884;28;20222;-74
2022/05/04 06:13:01;;;;;;;13.75;9.35;;;15.90;99.90;;;;;;5047347;28;20574;-75
2022/05/04 06:15:26;;;;;;;13.95;9.07;;;15.90;99.90;;;;;;5055971;28;20211;-74
2022/05/04 06:17:52;;;;;;;16.17;8.93;;;15.90;99.90;;;;;;5056882;28;20194;-75
2022/05/04 06:20:17;;;;;;;21.98;9.25;;;16.10;99.90;;;;;;5057876;28;20641;-75
2022/05/04 06:22:43;;;;;;;12.55;9.02;;;16.30;99.90;;;;;;5052896;28;20199;-75
2022/05/04 06:25:09;;;;;;;15.15;9.45;;;16.30;99.90;;;;;;5045180;28;20208;-74
2022/05/04 06:27:34;;;;;;;13.40;8.63;;;16.40;99.90;;;;;;5062320;28;20211;-75
2022/05/04 06:35:28;;;;;;;18.25;9.98;;;16.80;99.90;;;;;;5061334;28;20210;-76
2022/05/04 06:37:54;;;;;;;23.92;10.82;;;17.00;99.90;;;;;;5038769;28;20200;-74
2022/05/04 06:40:20;;;;;;;16.63;9.82;;;17.00;99.90;;;;;;5057788;28;20219;-74
2022/05/04 06:42:46;;;;;;;16.52;9.63;;;17.00;99.90;;;;;;5059212;28;20198;-75
2022/05/04 06:45:12;;;;;;;15.68;10.20;;;16.90;99.90;;;;;;5058786;28;20180;-72
2022/05/04 06:47:37;;;;;;;14.52;10.05;;;16.70;99.90;;;;;;5054704;28;20211;-74
2022/05/04 06:50:03;;;;;;;15.85;10.05;;;16.50;99.90;;;;;;5035792;28;20286;-74
2022/05/04 06:52:31;;;;;;;18.02;9.85;;;16.40;99.90;;;;;;5054085;28;20199;-73
2022/05/04 06:54:56;;;;;;;17.05;9.85;;;16.60;99.90;;;;;;5053789;28;20341;-74
2022/05/04 06:57:22;;;;;;;17.13;8.93;;;16.40;99.90;;;;;;5036046;28;20246;-74
2022/05/04 06:59:47;;;;;;;12.55;8.68;;;16.50;99.90;;;;;;5035785;28;20258;-72
2022/05/04 07:02:14;;;;;;;16.63;9.40;;;16.50;99.90;;;;;;5061996;28;20593;-72
2022/05/04 07:04:39;;;;;;;14.85;9.45;;;16.40;99.90;;;;;;5054403;28;20659;-75
2022/05/04 07:09:35;;;;;;;16.35;9.68;;;16.30;99.90;;;;;;5072237;22;20308;-76
2022/05/04 07:12:01;;;;;;;16.70;10.10;;;16.60;99.90;;;;;;5034035;28;20210;-76
2022/05/04 07:14:27;;;;;;;18.33;10.05;;;16.70;99.90;;;;;;5035804;28;20225;-76
2022/05/04 07:16:53;;;;;;;21.60;9.48;;;16.70;99.90;;;;;;5035203;28;20196;-77
2022/05/04 07:19:18;;;;;;;18.70;9.52;;;16.90;99.90;;;;;;5046098;28;20230;-76
2022/05/04 07:21:45;;;;;;;15.70;9.77;;;17.10;99.90;;;;;;5044953;28;20210;-76
2022/05/04 07:24:11;;;;;;;18.45;9.85;;;17.20;99.90;;;;;;5052129;28;20175;-76
2022/05/04 07:26:37;;;;;;;15.52;9.77;;;17.20;99.90;;;;;;5055706;28;20573;-76
2022/05/04 07:29:03;;;;;;;15.02;9.68;;;17.50;99.90;;;;;;5072337;28;20282;-77
2022/05/04 07:31:28;;;;;;;11.20;8.43;;;17.60;99.90;;;;;;5073106;28;20286;-76
2022/05/04 07:33:54;;;;;;;12.20;8.52;;;17.80;99.90;;;;;;5073358;28;20257;-76
2022/05/04 07:36:19;;;;;;;10.88;7.95;;;18.00;99.90;;;;;;5073179;28;20225;-76
2022/05/04 07:38:45;;;;;;;11.55;7.63;;;19.00;99.90;;;;;;5072526;28;20199;-76
2022/05/04 07:43:54;;;;;;;8.40;6.80;;;21.90;99.90;;;;;;5065986;28;20230;-77
2022/05/04 07:46:20;;;;;;;9.85;6.57;;;23.60;99.90;;;;;;5072739;28;20671;-77
2022/05/04 07:48:45;;;;;;;12.07;6.47;;;25.10;99.90;;;;;;5065157;28;20221;-77
2022/05/04 07:51:11;;;;;;;11.48;6.68;;;26.10;99.90;;;;;;5072977;28;20178;-77
2022/05/04 07:53:37;;;;;;;11.25;6.63;;;26.80;99.90;;;;;;5073335;28;20639;-78
2022/05/04 07:56:03;;;;;;;11.55;7.35;;;26.80;99.90;;;;;;5072604;28;20897;-77
2022/05/04 07:58:29;;;;;;;9.63;7.28;;;26.70;99.70;;;;;;5053732;28;20312;-77
2022/05/04 08:06:22;;;;;;;9.48;5.82;;;27.60;94.20;;;;;;5072141;28;20612;-77
2022/05/04 08:08:48;;;;;;;5.38;4.88;;;27.30;93.90;;;;;;5053857;28;20234;-78
2022/05/04 08:11:13;;;;;;;6.85;5.60;;;27.50;93.70;;;;;;5072459;28;20234;-77
2022/05/04 08:13:39;;;;;;;6.00;5.40;;;27.80;92.10;;;;;;5072163;28;20566;-77
2022/05/04 08:16:06;;;;;;;6.82;5.38;;;27.80;92.90;;;;;;5072251;28;20687;-77
2022/05/04 08:18:31;;;;;;;5.85;4.78;;;28.40;91.20;;;;;;5071201;28;20230;-77
2022/05/04 08:20:57;;;;;;;6.53;4.93;;;28.20;90.00;;;;;;5072226;28;20232;-77
2022/05/04 08:23:23;;;;;;;6.80;5.18;;;27.90;89.80;;;;;;5072509;28;20167;-77
2022/05/04 08:25:50;;;;;;;5.43;4.93;;;27.90;90.40;;;;;;5071904;28;20202;-77
2022/05/04 08:28:15;;;;;;;5.00;4.50;;;27.90;90.00;;;;;;5052312;28;20226;-78
2022/05/04 08:30:41;;;;;;;5.60;5.10;;;27.90;89.20;;;;;;5065056;28;20842;-77
2022/05/04 08:33:06;;;;;;;5.50;4.75;;;28.20;87.50;;;;;;5071944;28;20285;-77
2022/05/04 08:35:32;;;;;;;6.55;4.65;;;27.70;87.00;;;;;;5054338;28;20232;-78
2022/05/04 08:37:59;;;;;;;4.97;4.43;;;27.90;87.70;;;;;;5071189;28;20276;-78
2022/05/04 08:40:24;;;;;;;7.85;5.47;;;27.70;85.90;;;;;;5071155;28;20623;-76
2022/05/04 08:42:51;;;;;;;7.57;4.97;;;26.70;87.30;;;;;;5072071;28;20198;-77
2022/05/04 08:45:17;;;;;;;6.68;5.55;;;26.70;88.00;;;;;;5071774;28;20547;-77
2022/05/04 08:47:44;;;;;;;4.85;4.40;;;26.20;87.90;;;;;;5054035;28;20270;-76
2022/05/04 08:50:12;;;;;;;4.90;4.40;;;25.50;89.50;;;;;;5071166;28;20680;-76
2022/05/04 08:52:40;;;;;;;7.78;4.72;;;24.50;90.90;;;;;;5045548;28;20210;-76
2022/05/04 08:55:07;;;;;;;6.85;4.93;;;23.40;92.00;;;;;;5064614;28;20691;-76
2022/05/04 08:57:33;;;;;;;4.72;4.20;;;23.10;92.60;;;;;;5053491;28;20699;-75
2022/05/04 08:59:58;;;;;;;5.22;4.13;;;22.80;93.20;;;;;;5052832;28;20281;-76
2022/05/04 09:02:24;;;;;;;4.20;3.80;;;22.60;93.60;;;;;;5053696;28;20202;-77
2022/05/04 09:04:49;;;;;;;5.80;4.00;;;22.70;93.90;;;;;;5071367;28;20198;-76
2022/05/04 09:07:22;;;;;;;7.38;5.78;;;22.90;94.00;;;;;;5071489;28;20237;-76
2022/05/04 09:09:48;;;;;;;5.65;4.95;;;23.10;93.90;;;;;;5058832;28;20403;-76
2022/05/04 09:12:16;;;;;;;6.43;4.90;;;23.00;93.90;;;;;;5053626;28;20734;-76
2022/05/04 09:14:43;;;;;;;5.85;4.60;;;23.20;94.10;;;;;;5064809;28;20178;-76
2022/05/04 09:17:10;;;;;;;5.57;3.97;;;23.90;93.60;;;;;;5071134;28;20667;-76
2022/05/04 09:19:36;;;;;;;5.00;4.53;;;24.10;93.00;;;;;;5078312;28;20222;-76
2022/05/04 09:22:01;;;;;;;6.60;4.63;;;23.60;93.10;;;;;;5071101;28;20202;-76
2022/05/04 09:24:28;;;;;;;4.75;4.25;;;23.90;92.90;;;;;;5070953;28;20202;-78
2022/05/04 09:26:56;;;;;;;8.73;5.88;;;23.80;93.50;;;;;;5064684;28;20212;-76
2022/05/04 09:29:33;;;;;;;5.35;4.70;;;23.70;93.50;;;;;;5078756;28;20670;-76
2022/05/04 09:31:59;;;;;;;6.65;4.00;;;23.50;93.50;;;;;;5070829;28;20195;-76
2022/05/04 09:34:34;;;;;;;20.77;13.90;;;23.40;94.40;;;;;;5052747;28;20202;-76
2022/05/04 09:45:35;;;;;;;10.32;5.40;;;23.70;93.80;;;;;;5070977;28;20217;-76
2022/05/04 09:48:00;;;;;;;10.18;5.30;;;23.60;94.30;;;;;;5070181;28;20195;-75
2022/05/04 09:50:26;;;;;;;11.45;5.97;;;23.20;94.40;;;;;;5071379;28;20662;-77
2022/05/04 09:52:53;;;;;;;6.93;5.35;;;23.20;94.70;;;;;;5070788;28;20206;-76
2022/05/04 09:55:24;;;;;;;7.72;5.10;;;23.30;95.00;;;;;;5070837;28;20202;-77
2022/05/04 09:57:50;;;;;;;7.40;5.20;;;23.10;95.20;;;;;;5070391;28;20202;-79
2022/05/04 10:00:19;;;;;;;7.68;5.82;;;23.10;95.40;;;;;;5052249;28;20211;-77
2022/05/04 10:02:46;;;;;;;6.93;6.00;;;23.10;95.20;;;;;;5049960;28;20650;-77
2022/05/04 10:05:12;;;;;;;9.65;6.43;;;23.20;95.30;;;;;;5059857;28;20583;-74
2022/05/04 10:07:38;;;;;;;7.95;5.50;;;23.00;95.10;;;;;;5050545;28;20364;-75
2022/05/04 10:10:06;;;;;;;8.80;5.97;;;22.80;95.70;;;;;;5068729;28;20206;-78
2022/05/04 10:12:38;;;;;;;9.65;5.75;;;23.20;95.80;;;;;;5051989;28;20264;-73
2022/05/04 10:15:08;;;;;;;7.85;6.00;;;23.60;95.50;;;;;;5066760;28;20250;-72
2022/05/04 10:17:35;;;;;;;7.90;5.22;;;23.60;95.10;;;;;;5053192;28;20187;-75
2022/05/04 10:20:11;;;;;;;9.40;6.25;;;23.80;95.20;;;;;;5068541;28;20212;-76
2022/05/04 10:22:41;;;;;;;8.95;5.38;;;24.00;94.80;;;;;;5070265;28;20759;-76
2022/05/04 10:25:07;;;;;;;7.78;6.10;;;24.20;94.60;;;;;;5070267;28;20207;-73
2022/05/04 10:27:41;;;;;;;7.60;5.70;;;23.80;94.40;;;;;;5070239;28;20211;-73
2022/05/04 10:32:59;;;;;;;7.38;5.40;;;22.60;96.00;;;;;;5063959;28;20182;-74
2022/05/04 10:35:45;;;;;;;6.88;4.72;;;22.20;96.80;;;;;;5052638;28;20217;-73
2022/05/04 10:38:27;;;;;;;6.72;4.32;;;22.60;96.90;;;;;;5051131;28;20211;-74
2022/05/04 10:41:06;;;;;;;8.63;5.10;;;22.50;96.80;;;;;;5045057;28;20229;-73
2022/05/04 10:43:47;;;;;;;7.22;4.78;;;21.90;96.80;;;;;;5070314;28;20214;-73
2022/05/04 10:46:18;;;;;;;5.85;4.45;;;22.10;97.50;;;;;;5052268;28;20235;-72
2022/05/04 10:48:44;;;;;;;4.88;4.32;;;22.10;97.30;;;;;;5051386;28;20227;-75
2022/05/04 10:51:18;;;;;;;5.90;4.07;;;22.20;97.40;;;;;;5052395;28;20163;-73
2022/05/04 10:53:50;;;;;;;4.38;3.72;;;22.30;97.60;;;;;;5074374;28;20716;-72
2022/05/04 10:56:21;;;;;;;7.10;4.22;;;22.40;97.10;;;;;;5073922;28;20556;-74
2022/05/04 10:58:49;;;;;;;4.43;4.03;;;22.30;97.10;;;;;;5072777;28;20209;-73
2022/05/04 11:01:29;;;;;;;5.40;4.68;;;22.10;97.10;;;;;;5055423;28;20203;-73
2022/05/04 11:04:13;;;;;;;5.72;4.65;;;22.10;97.20;;;;;;5066109;28;20205;-72
2022/05/04 11:06:41;;;;;;;4.38;3.63;;;22.10;97.60;;;;;;5054706;28;20198;-73
2022/05/04 11:09:11;;;;;;;6.78;4.07;;;22.50;97.20;;;;;;5072513;28;20202;-73
2022/05/04 11:11:42;;;;;;;7.45;4.25;;;22.40;96.70;;;;;;5055590;28;20171;-72
2022/05/04 11:14:10;;;;;;;8.15;5.30;;;21.90;96.90;;;;;;5055510;28;20195;-72
2022/05/04 11:16:36;;;;;;;6.53;5.20;;;22.10;96.80;;;;;;5073367;28;20213;-72
2022/05/04 11:19:03;;;;;;;26.58;16.13;;;22.20;96.80;;;;;;5054508;28;20211;-75
2022/05/04 11:21:29;;;;;;;9.00;6.03;;;22.60;97.20;;;;;;5054061;28;20268;-75
2022/05/04 11:23:57;;;;;;;5.38;4.47;;;23.00;96.70;;;;;;5060073;28;20549;-74
2022/05/04 11:26:43;;;;;;;6.65;3.67;;;22.70;96.10;;;;;;5079979;28;20278;-73
2022/05/04 11:29:29;;;;;;;7.53;4.43;;;23.00;96.70;;;;;;5068741;28;20722;-73
2022/05/04 11:31:58;;;;;;;4.32;3.85;;;23.20;95.50;;;;;;5066099;28;20210;-73
2022/05/04 11:34:26;;;;;;;5.90;4.47;;;23.10;95.30;;;;;;5072786;28;20219;-74
2022/05/04 11:36:54;;;;;;;4.78;3.75;;;23.00;95.30;;;;;;5073061;28;20199;-73
2022/05/04 11:39:25;;;;;;;9.90;3.85;;;22.80;96.00;;;;;;5072090;28;20222;-72
2022/05/04 11:41:53;;;;;;;7.13;4.25;;;23.00;96.40;;;;;;5073453;28;20214;-73
2022/05/04 11:44:23;;;;;;;5.18;3.70;;;23.00;95.90;;;;;;5070274;28;20194;-70
2022/05/04 11:46:54;;;;;;;4.90;4.10;;;22.80;95.60;;;;;;5062548;28;20265;-72
2022/05/04 11:49:22;;;;;;;6.80;4.55;;;22.50;95.90;;;;;;5069820;28;20229;-72
2022/05/04 11:51:48;;;;;;;5.22;4.18;;;22.20;96.40;;;;;;5064042;28;20738;-72
2022/05/04 11:54:14;;;;;;;4.43;3.72;;;22.30;96.40;;;;;;5072539;28;20171;-72
2022/05/04 11:56:39;;;;;;;7.40;6.00;;;22.60;96.60;;;;;;5055003;28;20224;-72
2022/05/04 11:59:07;;;;;;;5.90;4.57;;;23.10;96.10;;;;;;5053652;28;20207;-72
2022/05/04 12:01:33;;;;;;;8.43;5.25;;;23.30;95.30;;;;;;5054502;28;20203;-72
2022/05/04 12:04:00;;;;;;;10.05;5.05;;;22.70;95.20;;;;;;5072315;28;20683;-72
2022/05/04 12:06:26;;;;;;;5.95;4.80;;;22.70;95.60;;;;;;5054368;28;20210;-72
2022/05/04 12:08:54;;;;;;;6.38;4.50;;;22.80;95.60;;;;;;5072418;28;20679;-73
2022/05/04 12:11:20;;;;;;;5.43;4.53;;;22.80;95.30;;;;;;5054685;28;20206;-72
2022/05/04 12:13:47;;;;;;;6.00;4.75;;;22.30;95.20;;;;;;5064168;28;20720;-73
2022/05/04 12:16:13;;;;;;;4.85;4.35;;;22.00;96.10;;;;;;5054296;28;20217;-72
2022/05/04 12:18:39;;;;;;;5.60;4.20;;;22.00;96.10;;;;;;5053236;28;20227;-74
2022/05/04 12:21:13;;;;;;;5.78;4.10;;;22.20;96.30;;;;;;5054157;28;20186;-73
2022/05/04 12:23:41;;;;;;;4.32;3.70;;;22.20;96.30;;;;;;5054433;28;20191;-72
2022/05/04 12:26:08;;;;;;;6.35;4.03;;;22.30;96.10;;;;;;5054250;28;20202;-72
2022/05/04 12:28:34;;;;;;;6.15;4.40;;;22.40;96.10;;;;;;5053057;28;20211;-72
2022/05/04 12:33:48;;;;;;;6.38;4.68;;;22.20;96.00;;;;;;5057963;28;20205;-72
2022/05/04 12:36:14;;;;;;;8.88;4.80;;;22.20;96.00;;;;;;5071578;28;20231;-72
2022/05/04 12:38:46;;;;;;;8.40;4.30;;;22.30;95.90;;;;;;5053737;28;20285;-72
2022/05/04 12:41:13;;;;;;;6.40;3.92;;;22.20;95.90;;;;;;5054016;28;20196;-73
2022/05/04 12:43:39;;;;;;;5.65;3.92;;;22.30;96.00;;;;;;5053479;28;20584;-72
2022/05/04 12:46:15;;;;;;;6.00;4.05;;;22.20;96.00;;;;;;5053753;28;20256;-73
2022/05/04 12:48:42;;;;;;;5.47;4.20;;;22.00;96.10;;;;;;5052867;28;20276;-72
2022/05/04 12:51:09;;;;;;;6.85;4.75;;;21.60;95.80;;;;;;5053797;28;20216;-72
2022/05/04 12:53:38;;;;;;;5.15;4.28;;;21.50;96.20;;;;;;5072162;28;20574;-71
2022/05/04 12:58:49;;;;;;;5.97;4.80;;;21.10;97.10;;;;;;5064007;28;20275;-72
2022/05/04 13:01:14;;;;;;;4.68;3.90;;;21.20;96.90;;;;;;5053146;28;20667;-72
2022/05/04 13:03:41;;;;;;;4.93;3.92;;;21.20;97.00;;;;;;5036861;28;20228;-71
2022/05/04 13:06:06;;;;;;;6.05;3.90;;;21.70;96.80;;;;;;5053127;28;20167;-72
2022/05/04 13:08:32;;;;;;;5.28;4.20;;;21.50;96.60;;;;;;5077054;22;20700;-73
2022/05/04 13:10:58;;;;;;;5.35;4.07;;;21.30;96.70;;;;;;5032859;28;20249;-74
2022/05/04 13:13:25;;;;;;;5.38;4.00;;;21.60;96.90;;;;;;5050696;28;20195;-72
2022/05/04 13:15:51;;;;;;;5.20;4.22;;;22.00;96.60;;;;;;5032222;28;20203;-72
2022/05/04 13:18:18;;;;;;;4.75;4.15;;;22.10;96.20;;;;;;5031829;28;20302;-72
2022/05/04 13:20:43;;;;;;;4.88;4.40;;;22.10;96.20;;;;;;5051223;28;20183;-73
2022/05/04 13:23:09;;;;;;;6.07;4.10;;;22.00;96.10;;;;;;5050740;28;20207;-72
2022/05/04 13:25:35;;;;;;;8.10;4.38;;;21.80;96.70;;;;;;5050476;28;20204;-72